sensor_id;sensor_type;location;lat;lon;timestamp;pressure;altitude;pressure_sealevel;temperature;humidity
19108;BME280;9686;48.832;9.126;2022-12-08T00:00:07;97783.31;;;4.05;nan
19108;BME280;9686;48.832;9.126;2022-12-08T00:02:32;97778.28;;;4.14;nan
19108;BME280;9686;48.832;9.126;2022-12-08T00:04:57;97770.47;;;4.08;nan
19108;BME280;9686;48.832;9.126;2022-12-08T00:07:41;97770.59;;;4.17;nan
19108;BME280;9686;48.832;9.126;2022-12-08T00:10:25;97769.78;;;4.21;nan
19108;BME280;9686;48.832;9.126;2022-12-08T00:12:50;97780.19;;;4.30;nan
19108;BME280;9686;48.832;9.126;2022-12-08T00:15:15;97777.63;;;4.31;nan
19108;BME280;9686;48.832;9.126;2022-12-08T00:17:41;97781.13;;;4.37;nan
19108;BME280;9686;48.832;9.126;2022-12-08T00:20:06;97768.25;;;4.40;nan
19108;BME280;9686;48.832;9.126;2022-12-08T00:22:32;97768.28;;;4.41;nan
19108;BME280;9686;48.832;9.126;2022-12-08T00:24:57;97767.53;;;4.51;nan
19108;BME280;9686;48.832;9.126;2022-12-08T00:27:22;97760.75;;;4.61;nan
19108;BME280;9686;48.832;9.126;2022-12-08T00:29:48;97749.50;;;4.53;nan
19108;BME280;9686;48.832;9.126;2022-12-08T00:32:13;97753.00;;;4.59;nan
19108;BME280;9686;48.832;9.126;2022-12-08T00:34:38;97754.59;;;4.45;nan
19108;BME280;9686;48.832;9.126;2022-12-08T00:37:04;97753.53;;;4.31;nan
19108;BME280;9686;48.832;9.126;2022-12-08T00:39:29;97756.22;;;4.39;nan
19108;BME280;9686;48.832;9.126;2022-12-08T00:41:54;97753.41;;;4.17;nan
19108;BME280;9686;48.832;9.126;2022-12-08T00:44:39;97755.94;;;4.16;nan
19108;BME280;9686;48.832;9.126;2022-12-08T00:47:05;97756.00;;;4.17;nan
19108;BME280;9686;48.832;9.126;2022-12-08T00:49:30;97758.34;;;4.00;nan
19108;BME280;9686;48.832;9.126;2022-12-08T00:51:55;97752.50;;;4.15;nan
19108;BME280;9686;48.832;9.126;2022-12-08T00:54:21;97746.56;;;4.19;nan
19108;BME280;9686;48.832;9.126;2022-12-08T00:56:47;97739.53;;;4.09;nan
19108;BME280;9686;48.832;9.126;2022-12-08T00:59:12;97739.34;;;3.91;nan
19108;BME280;9686;48.832;9.126;2022-12-08T01:01:38;97741.94;;;3.94;nan
19108;BME280;9686;48.832;9.126;2022-12-08T01:04:05;97745.28;;;3.87;nan
19108;BME280;9686;48.832;9.126;2022-12-08T01:06:33;97740.06;;;3.82;nan
19108;BME280;9686;48.832;9.126;2022-12-08T01:09:00;97743.69;;;3.96;nan
19108;BME280;9686;48.832;9.126;2022-12-08T01:11:25;97739.13;;;3.74;nan
19108;BME280;9686;48.832;9.126;2022-12-08T01:13:51;97733.91;;;3.71;nan
19108;BME280;9686;48.832;9.126;2022-12-08T01:16:27;97738.19;;;3.69;nan
19108;BME280;9686;48.832;9.126;2022-12-08T01:18:53;97740.78;;;3.70;nan
19108;BME280;9686;48.832;9.126;2022-12-08T01:21:19;97744.16;;;3.65;nan
19108;BME280;9686;48.832;9.126;2022-12-08T01:23:45;97740.72;;;3.66;nan
19108;BME280;9686;48.832;9.126;2022-12-08T01:26:12;97749.31;;;3.65;nan
19108;BME280;9686;48.832;9.126;2022-12-08T01:28:39;97755.50;;;3.79;nan
19108;BME280;9686;48.832;9.126;2022-12-08T01:31:09;97751.13;;;3.74;nan
19108;BME280;9686;48.832;9.126;2022-12-08T01:33:35;97747.72;;;3.75;nan
19108;BME280;9686;48.832;9.126;2022-12-08T01:36:04;97746.63;;;3.60;nan
19108;BME280;9686;48.832;9.126;2022-12-08T01:38:30;97741.56;;;3.65;nan
19108;BME280;9686;48.832;9.126;2022-12-08T01:40:55;97741.47;;;3.59;nan
19108;BME280;9686;48.832;9.126;2022-12-08T01:43:21;97742.44;;;3.65;nan
19108;BME280;9686;48.832;9.126;2022-12-08T01:45:46;97733.72;;;3.57;nan
19108;BME280;9686;48.832;9.126;2022-12-08T01:48:22;97732.75;;;3.49;nan
19108;BME280;9686;48.832;9.126;2022-12-08T01:50:50;97739.69;;;3.55;nan
19108;BME280;9686;48.832;9.126;2022-12-08T01:53:20;97732.63;;;3.40;nan
19108;BME280;9686;48.832;9.126;2022-12-08T01:55:51;97726.63;;;3.39;nan
19108;BME280;9686;48.832;9.126;2022-12-08T01:58:30;97730.44;;;3.67;nan
19108;BME280;9686;48.832;9.126;2022-12-08T02:00:56;97723.28;;;3.47;nan
19108;BME280;9686;48.832;9.126;2022-12-08T02:03:35;97724.97;;;3.45;nan
19108;BME280;9686;48.832;9.126;2022-12-08T02:06:03;97718.84;;;3.38;nan
19108;BME280;9686;48.832;9.126;2022-12-08T02:08:29;97725.69;;;3.36;nan
19108;BME280;9686;48.832;9.126;2022-12-08T02:10:55;97719.94;;;3.54;nan
19108;BME280;9686;48.832;9.126;2022-12-08T02:13:22;97705.94;;;3.36;nan
19108;BME280;9686;48.832;9.126;2022-12-08T02:23:36;97703.53;;;3.47;nan
19108;BME280;9686;48.832;9.126;2022-12-08T02:31:42;97690.34;;;3.24;nan
19108;BME280;9686;48.832;9.126;2022-12-08T02:34:33;97678.25;;;3.19;nan
19108;BME280;9686;48.832;9.126;2022-12-08T02:37:08;97680.06;;;3.26;nan
19108;BME280;9686;48.832;9.126;2022-12-08T02:39:55;97678.56;;;3.42;nan
19108;BME280;9686;48.832;9.126;2022-12-08T02:42:36;97680.38;;;3.50;nan
19108;BME280;9686;48.832;9.126;2022-12-08T02:45:30;97684.28;;;3.21;nan
19108;BME280;9686;48.832;9.126;2022-12-08T02:47:54;97684.00;;;3.02;nan
19108;BME280;9686;48.832;9.126;2022-12-08T02:50:21;97685.63;;;2.96;nan
19108;BME280;9686;48.832;9.126;2022-12-08T02:52:47;97688.97;;;2.90;nan
19108;BME280;9686;48.832;9.126;2022-12-08T02:55:19;97686.25;;;2.81;nan
19108;BME280;9686;48.832;9.126;2022-12-08T02:57:56;97679.53;;;2.89;nan
19108;BME280;9686;48.832;9.126;2022-12-08T03:00:31;97676.81;;;2.83;nan
19108;BME280;9686;48.832;9.126;2022-12-08T03:08:28;97672.53;;;2.84;nan
19108;BME280;9686;48.832;9.126;2022-12-08T03:11:09;97677.78;;;2.87;nan
19108;BME280;9686;48.832;9.126;2022-12-08T03:13:44;97670.91;;;2.87;nan
19108;BME280;9686;48.832;9.126;2022-12-08T03:16:14;97669.22;;;2.89;nan
19108;BME280;9686;48.832;9.126;2022-12-08T03:18:46;97664.78;;;2.81;nan
19108;BME280;9686;48.832;9.126;2022-12-08T03:21:14;97671.59;;;2.77;nan
19108;BME280;9686;48.832;9.126;2022-12-08T03:23:43;97660.38;;;2.73;nan
19108;BME280;9686;48.832;9.126;2022-12-08T03:26:54;97660.53;;;2.84;nan
19108;BME280;9686;48.832;9.126;2022-12-08T03:29:21;97646.06;;;2.89;nan
19108;BME280;9686;48.832;9.126;2022-12-08T03:31:53;97652.06;;;2.90;nan
19108;BME280;9686;48.832;9.126;2022-12-08T03:34:20;97656.44;;;2.94;nan
19108;BME280;9686;48.832;9.126;2022-12-08T03:36:47;97649.31;;;2.77;nan
19108;BME280;9686;48.832;9.126;2022-12-08T03:39:13;97653.50;;;2.71;nan
19108;BME280;9686;48.832;9.126;2022-12-08T03:41:38;97658.69;;;2.74;nan
19108;BME280;9686;48.832;9.126;2022-12-08T03:44:04;97646.63;;;2.71;nan
19108;BME280;9686;48.832;9.126;2022-12-08T03:46:30;97652.81;;;2.83;nan
19108;BME280;9686;48.832;9.126;2022-12-08T03:48:56;97644.72;;;2.60;nan
19108;BME280;9686;48.832;9.126;2022-12-08T03:51:22;97639.53;;;2.57;nan
19108;BME280;9686;48.832;9.126;2022-12-08T03:53:47;97631.06;;;2.62;nan
19108;BME280;9686;48.832;9.126;2022-12-08T03:56:23;97631.09;;;2.64;nan
19108;BME280;9686;48.832;9.126;2022-12-08T03:58:49;97627.69;;;2.65;nan
19108;BME280;9686;48.832;9.126;2022-12-08T04:01:15;97633.66;;;2.64;nan
19108;BME280;9686;48.832;9.126;2022-12-08T04:03:40;97633.78;;;2.71;nan
19108;BME280;9686;48.832;9.126;2022-12-08T04:06:06;97628.69;;;2.76;nan
19108;BME280;9686;48.832;9.126;2022-12-08T04:08:32;97623.22;;;2.55;nan
19108;BME280;9686;48.832;9.126;2022-12-08T04:10:57;97618.75;;;2.43;nan
19108;BME280;9686;48.832;9.126;2022-12-08T04:13:22;97622.16;;;2.42;nan
19108;BME280;9686;48.832;9.126;2022-12-08T04:15:48;97624.66;;;2.36;nan
19108;BME280;9686;48.832;9.126;2022-12-08T04:18:14;97617.66;;;2.30;nan
19108;BME280;9686;48.832;9.126;2022-12-08T04:20:43;97614.56;;;2.50;nan
19108;BME280;9686;48.832;9.126;2022-12-08T04:23:10;97615.47;;;2.53;nan
19108;BME280;9686;48.832;9.126;2022-12-08T04:25:36;97620.63;;;2.55;nan
19108;BME280;9686;48.832;9.126;2022-12-08T04:28:02;97616.25;;;2.47;nan
19108;BME280;9686;48.832;9.126;2022-12-08T04:30:28;97617.03;;;2.42;nan
19108;BME280;9686;48.832;9.126;2022-12-08T04:32:53;97612.69;;;2.39;nan
19108;BME280;9686;48.832;9.126;2022-12-08T04:35:18;97611.69;;;2.31;nan
19108;BME280;9686;48.832;9.126;2022-12-08T04:37:44;97614.34;;;2.36;nan
19108;BME280;9686;48.832;9.126;2022-12-08T04:40:10;97615.22;;;2.36;nan
19108;BME280;9686;48.832;9.126;2022-12-08T04:42:36;97617.78;;;2.36;nan
19108;BME280;9686;48.832;9.126;2022-12-08T04:45:02;97613.31;;;2.26;nan
19108;BME280;9686;48.832;9.126;2022-12-08T04:47:27;97614.94;;;2.20;nan
19108;BME280;9686;48.832;9.126;2022-12-08T04:49:53;97601.31;;;2.27;nan
19108;BME280;9686;48.832;9.126;2022-12-08T04:52:18;97600.34;;;2.19;nan
19108;BME280;9686;48.832;9.126;2022-12-08T04:54:43;97599.38;;;2.12;nan
19108;BME280;9686;48.832;9.126;2022-12-08T04:57:09;97601.13;;;2.14;nan
19108;BME280;9686;48.832;9.126;2022-12-08T04:59:34;97595.00;;;2.08;nan
19108;BME280;9686;48.832;9.126;2022-12-08T05:02:00;97597.56;;;2.08;nan
19108;BME280;9686;48.832;9.126;2022-12-08T05:04:25;97595.00;;;2.08;nan
19108;BME280;9686;48.832;9.126;2022-12-08T05:06:51;97592.59;;;2.15;nan
19108;BME280;9686;48.832;9.126;2022-12-08T05:09:16;97589.25;;;2.23;nan
19108;BME280;9686;48.832;9.126;2022-12-08T05:11:41;97588.38;;;2.21;nan
19108;BME280;9686;48.832;9.126;2022-12-08T05:14:11;97587.50;;;2.19;nan
19108;BME280;9686;48.832;9.126;2022-12-08T05:16:36;97584.88;;;2.15;nan
19108;BME280;9686;48.832;9.126;2022-12-08T05:19:02;97585.84;;;2.22;nan
19108;BME280;9686;48.832;9.126;2022-12-08T05:21:28;97582.91;;;2.01;nan
19108;BME280;9686;48.832;9.126;2022-12-08T05:23:53;97583.56;;;1.89;nan
19108;BME280;9686;48.832;9.126;2022-12-08T05:26:18;97581.69;;;1.82;nan
19108;BME280;9686;48.832;9.126;2022-12-08T05:28:44;97578.16;;;1.75;nan
19108;BME280;9686;48.832;9.126;2022-12-08T05:31:13;97584.91;;;1.70;nan
19108;BME280;9686;48.832;9.126;2022-12-08T05:33:39;97583.88;;;1.59;nan
19108;BME280;9686;48.832;9.126;2022-12-08T05:36:05;97588.63;;;1.84;nan
19108;BME280;9686;48.832;9.126;2022-12-08T05:38:30;97586.78;;;1.79;nan
19108;BME280;9686;48.832;9.126;2022-12-08T05:40:56;97589.50;;;1.85;nan
19108;BME280;9686;48.832;9.126;2022-12-08T05:43:21;97586.84;;;1.82;nan
19108;BME280;9686;48.832;9.126;2022-12-08T05:45:47;97587.56;;;1.75;nan
19108;BME280;9686;48.832;9.126;2022-12-08T05:48:12;97594.69;;;1.88;nan
19108;BME280;9686;48.832;9.126;2022-12-08T05:50:37;97587.91;;;1.93;nan
19108;BME280;9686;48.832;9.126;2022-12-08T05:53:03;97591.19;;;1.84;nan
19108;BME280;9686;48.832;9.126;2022-12-08T05:55:28;97585.56;;;2.07;nan
19108;BME280;9686;48.832;9.126;2022-12-08T05:57:53;97584.44;;;1.91;nan
19108;BME280;9686;48.832;9.126;2022-12-08T06:00:19;97579.34;;;1.93;nan
19108;BME280;9686;48.832;9.126;2022-12-08T06:02:45;97581.75;;;1.83;nan
19108;BME280;9686;48.832;9.126;2022-12-08T06:05:10;97578.91;;;1.70;nan
19108;BME280;9686;48.832;9.126;2022-12-08T06:07:36;97574.94;;;1.85;nan
19108;BME280;9686;48.832;9.126;2022-12-08T06:10:03;97581.00;;;1.91;nan
19108;BME280;9686;48.832;9.126;2022-12-08T06:12:28;97578.25;;;1.80;nan
19108;BME280;9686;48.832;9.126;2022-12-08T06:14:54;97579.88;;;1.75;nan
19108;BME280;9686;48.832;9.126;2022-12-08T06:17:19;97580.88;;;1.83;nan
19108;BME280;9686;48.832;9.126;2022-12-08T06:19:44;97578.41;;;1.88;nan
19108;BME280;9686;48.832;9.126;2022-12-08T06:22:10;97576.69;;;1.88;nan
19108;BME280;9686;48.832;9.126;2022-12-08T06:24:35;97575.75;;;1.83;nan
19108;BME280;9686;48.832;9.126;2022-12-08T06:27:00;97580.91;;;1.84;nan
19108;BME280;9686;48.832;9.126;2022-12-08T06:29:26;97576.63;;;1.83;nan
19108;BME280;9686;48.832;9.126;2022-12-08T06:31:51;97574.09;;;1.87;nan
19108;BME280;9686;48.832;9.126;2022-12-08T06:34:16;97581.66;;;1.79;nan
19108;BME280;9686;48.832;9.126;2022-12-08T06:36:42;97577.47;;;1.84;nan
19108;BME280;9686;48.832;9.126;2022-12-08T06:39:08;97583.25;;;1.72;nan
19108;BME280;9686;48.832;9.126;2022-12-08T06:41:34;97579.03;;;1.77;nan
19108;BME280;9686;48.832;9.126;2022-12-08T06:44:19;97576.69;;;1.88;nan
19108;BME280;9686;48.832;9.126;2022-12-08T06:46:44;97581.56;;;1.74;nan
19108;BME280;9686;48.832;9.126;2022-12-08T06:49:10;97578.16;;;1.75;nan
19108;BME280;9686;48.832;9.126;2022-12-08T06:51:35;97586.59;;;1.68;nan
19108;BME280;9686;48.832;9.126;2022-12-08T06:54:00;97581.66;;;1.79;nan
19108;BME280;9686;48.832;9.126;2022-12-08T06:56:26;97587.50;;;1.70;nan
19108;BME280;9686;48.832;9.126;2022-12-08T06:58:52;97592.66;;;1.72;nan
19108;BME280;9686;48.832;9.126;2022-12-08T07:01:17;97591.06;;;1.78;nan
19108;BME280;9686;48.832;9.126;2022-12-08T07:03:42;97586.06;;;1.84;nan
19108;BME280;9686;48.832;9.126;2022-12-08T07:06:14;97589.41;;;1.82;nan
19108;BME280;9686;48.832;9.126;2022-12-08T07:08:40;97590.31;;;1.84;nan
19108;BME280;9686;48.832;9.126;2022-12-08T07:11:07;97593.59;;;1.77;nan
19108;BME280;9686;48.832;9.126;2022-12-08T07:13:33;97585.88;;;1.75;nan
19108;BME280;9686;48.832;9.126;2022-12-08T07:15:58;97586.81;;;1.80;nan
19108;BME280;9686;48.832;9.126;2022-12-08T07:18:24;97599.75;;;1.85;nan
19108;BME280;9686;48.832;9.126;2022-12-08T07:20:49;97599.00;;;1.91;nan
19108;BME280;9686;48.832;9.126;2022-12-08T07:23:14;97595.66;;;1.96;nan
19108;BME280;9686;48.832;9.126;2022-12-08T07:25:39;97597.44;;;2.00;nan
19108;BME280;9686;48.832;9.126;2022-12-08T07:28:07;97598.25;;;1.96;nan
19108;BME280;9686;48.832;9.126;2022-12-08T07:30:32;97593.97;;;1.97;nan
19108;BME280;9686;48.832;9.126;2022-12-08T07:32:58;97594.72;;;1.91;nan
19108;BME280;9686;48.832;9.126;2022-12-08T07:35:23;97594.94;;;2.03;nan
19108;BME280;9686;48.832;9.126;2022-12-08T07:37:48;97595.78;;;2.04;nan
19108;BME280;9686;48.832;9.126;2022-12-08T07:40:14;97589.69;;;1.97;nan
19108;BME280;9686;48.832;9.126;2022-12-08T07:42:39;97595.72;;;1.99;nan
19108;BME280;9686;48.832;9.126;2022-12-08T07:45:05;97593.16;;;1.99;nan
19108;BME280;9686;48.832;9.126;2022-12-08T07:47:30;97596.88;;;2.15;nan
19108;BME280;9686;48.832;9.126;2022-12-08T07:49:56;97595.34;;;2.28;nan
19108;BME280;9686;48.832;9.126;2022-12-08T07:52:21;97596.34;;;2.34;nan
19108;BME280;9686;48.832;9.126;2022-12-08T07:54:47;97588.75;;;2.43;nan
19108;BME280;9686;48.832;9.126;2022-12-08T07:57:12;97590.56;;;2.51;nan
19108;BME280;9686;48.832;9.126;2022-12-08T07:59:38;97579.16;;;2.33;nan
19108;BME280;9686;48.832;9.126;2022-12-08T08:02:03;97582.56;;;2.34;nan
19108;BME280;9686;48.832;9.126;2022-12-08T08:04:28;97580.81;;;2.30;nan
19108;BME280;9686;48.832;9.126;2022-12-08T08:06:54;97579.22;;;2.36;nan
19108;BME280;9686;48.832;9.126;2022-12-08T08:09:19;97581.78;;;2.35;nan
19108;BME280;9686;48.832;9.126;2022-12-08T08:11:44;97575.97;;;2.50;nan
19108;BME280;9686;48.832;9.126;2022-12-08T08:14:10;97570.00;;;2.51;nan
19108;BME280;9686;48.832;9.126;2022-12-08T08:16:36;97573.47;;;2.54;nan
19108;BME280;9686;48.832;9.126;2022-12-08T08:19:01;97576.09;;;2.57;nan
19108;BME280;9686;48.832;9.126;2022-12-08T08:21:26;97570.19;;;2.63;nan
19108;BME280;9686;48.832;9.126;2022-12-08T08:23:51;97567.91;;;2.84;nan
19108;BME280;9686;48.832;9.126;2022-12-08T08:26:17;97570.75;;;3.05;nan
19108;BME280;9686;48.832;9.126;2022-12-08T08:28:42;97570.75;;;3.05;nan
19108;BME280;9686;48.832;9.126;2022-12-08T08:31:10;97568.88;;;2.92;nan
19108;BME280;9686;48.832;9.126;2022-12-08T08:33:36;97570.66;;;2.98;nan
19108;BME280;9686;48.832;9.126;2022-12-08T08:36:05;97574.13;;;3.00;nan
19108;BME280;9686;48.832;9.126;2022-12-08T08:38:31;97567.41;;;3.11;nan
19108;BME280;9686;48.832;9.126;2022-12-08T08:40:56;97565.84;;;3.22;nan
19108;BME280;9686;48.832;9.126;2022-12-08T08:43:21;97578.06;;;3.38;nan
19108;BME280;9686;48.832;9.126;2022-12-08T08:45:59;97568.66;;;3.40;nan
19108;BME280;9686;48.832;9.126;2022-12-08T08:48:26;97568.75;;;3.50;nan
19108;BME280;9686;48.832;9.126;2022-12-08T08:50:52;97563.56;;;3.48;nan
19108;BME280;9686;48.832;9.126;2022-12-08T08:53:18;97570.41;;;3.45;nan
19108;BME280;9686;48.832;9.126;2022-12-08T08:55:43;97558.47;;;3.53;nan
19108;BME280;9686;48.832;9.126;2022-12-08T08:58:09;97570.63;;;3.64;nan
19108;BME280;9686;48.832;9.126;2022-12-08T09:00:34;97560.38;;;3.70;nan
19108;BME280;9686;48.832;9.126;2022-12-08T09:02:59;97561.31;;;3.80;nan
19108;BME280;9686;48.832;9.126;2022-12-08T09:05:25;97562.19;;;3.79;nan
19108;BME280;9686;48.832;9.126;2022-12-08T09:07:50;97557.94;;;3.87;nan
19108;BME280;9686;48.832;9.126;2022-12-08T09:10:15;97554.63;;;3.97;nan
19108;BME280;9686;48.832;9.126;2022-12-08T09:12:41;97554.81;;;4.17;nan
19108;BME280;9686;48.832;9.126;2022-12-08T09:15:06;97543.66;;;4.20;nan
19108;BME280;9686;48.832;9.126;2022-12-08T09:17:31;97548.75;;;4.15;nan
19108;BME280;9686;48.832;9.126;2022-12-08T09:19:57;97542.88;;;4.31;nan
19108;BME280;9686;48.832;9.126;2022-12-08T09:22:22;97536.84;;;4.31;nan
19108;BME280;9686;48.832;9.126;2022-12-08T09:24:48;97540.31;;;4.34;nan
19108;BME280;9686;48.832;9.126;2022-12-08T09:27:13;97537.00;;;4.51;nan
19108;BME280;9686;48.832;9.126;2022-12-08T09:29:38;97530.19;;;4.65;nan
19108;BME280;9686;48.832;9.126;2022-12-08T09:32:04;97539.78;;;4.81;nan
19108;BME280;9686;48.832;9.126;2022-12-08T09:34:29;97538.94;;;4.87;nan
19108;BME280;9686;48.832;9.126;2022-12-08T09:36:56;97540.66;;;4.86;nan
19108;BME280;9686;48.832;9.126;2022-12-08T09:39:21;97541.53;;;4.91;nan
19108;BME280;9686;48.832;9.126;2022-12-08T09:41:54;97533.84;;;4.94;nan
19108;BME280;9686;48.832;9.126;2022-12-08T09:47:20;97537.41;;;5.22;nan
19108;BME280;9686;48.832;9.126;2022-12-08T09:49:53;97527.94;;;5.24;nan
19108;BME280;9686;48.832;9.126;2022-12-08T09:52:25;97530.56;;;5.37;nan
19108;BME280;9686;48.832;9.126;2022-12-08T09:54:52;97522.78;;;5.34;nan
19108;BME280;9686;48.832;9.126;2022-12-08T09:57:21;97517.63;;;5.41;nan
19108;BME280;9686;48.832;9.126;2022-12-08T09:59:53;97516.81;;;5.50;nan
19108;BME280;9686;48.832;9.126;2022-12-08T10:02:22;97515.97;;;5.54;nan
19108;BME280;9686;48.832;9.126;2022-12-08T10:04:48;97510.78;;;5.48;nan
19108;BME280;9686;48.832;9.126;2022-12-08T10:12:53;97503.91;;;5.64;nan
19108;BME280;9686;48.832;9.126;2022-12-08T10:15:43;97502.22;;;5.75;nan
19108;BME280;9686;48.832;9.126;2022-12-08T10:18:38;97490.22;;;6.09;nan
19108;BME280;9686;48.832;9.126;2022-12-08T10:21:15;97487.59;;;6.24;nan
19108;BME280;9686;48.832;9.126;2022-12-08T10:23:46;97488.50;;;6.25;nan
19108;BME280;9686;48.832;9.126;2022-12-08T10:26:20;97489.34;;;6.31;nan
19108;BME280;9686;48.832;9.126;2022-12-08T10:28:45;97494.50;;;6.40;nan
19108;BME280;9686;48.832;9.126;2022-12-08T10:31:23;97483.25;;;6.46;nan
19108;BME280;9686;48.832;9.126;2022-12-08T10:33:56;97477.19;;;6.77;nan
19108;BME280;9686;48.832;9.126;2022-12-08T10:36:22;97484.91;;;6.74;nan
19108;BME280;9686;48.832;9.126;2022-12-08T10:38:47;97484.06;;;6.74;nan
19108;BME280;9686;48.832;9.126;2022-12-08T10:41:14;97471.91;;;6.96;nan
19108;BME280;9686;48.832;9.126;2022-12-08T10:43:49;97473.63;;;6.95;nan
19108;BME280;9686;48.832;9.126;2022-12-08T10:46:22;97480.59;;;6.87;nan
19108;BME280;9686;48.832;9.126;2022-12-08T10:49:10;97471.91;;;6.99;nan
19108;BME280;9686;48.832;9.126;2022-12-08T10:51:40;97463.25;;;7.07;nan
19108;BME280;9686;48.832;9.126;2022-12-08T10:54:32;97469.28;;;7.08;nan
19108;BME280;9686;48.832;9.126;2022-12-08T10:56:58;97458.91;;;7.08;nan
19108;BME280;9686;48.832;9.126;2022-12-08T10:59:24;97458.91;;;7.11;nan
19108;BME280;9686;48.832;9.126;2022-12-08T11:01:55;97445.88;;;7.20;nan
19108;BME280;9686;48.832;9.126;2022-12-08T11:04:41;97445.03;;;7.17;nan
19108;BME280;9686;48.832;9.126;2022-12-08T11:07:08;97444.13;;;7.25;nan
19108;BME280;9686;48.832;9.126;2022-12-08T11:09:40;97431.16;;;7.30;nan
19108;BME280;9686;48.832;9.126;2022-12-08T11:12:14;97438.00;;;7.41;nan
19108;BME280;9686;48.832;9.126;2022-12-08T11:19:42;97419.88;;;7.37;nan
19108;BME280;9686;48.832;9.126;2022-12-08T11:22:24;97412.97;;;7.36;nan
19108;BME280;9686;48.832;9.126;2022-12-08T11:24:58;97413.88;;;7.27;nan
19108;BME280;9686;48.832;9.126;2022-12-08T11:27:24;97416.47;;;7.27;nan
19108;BME280;9686;48.832;9.126;2022-12-08T11:29:49;97408.66;;;7.36;nan
19108;BME280;9686;48.832;9.126;2022-12-08T11:32:15;97409.56;;;7.29;nan
19108;BME280;9686;48.832;9.126;2022-12-08T11:37:33;97409.56;;;7.28;nan
19108;BME280;9686;48.832;9.126;2022-12-08T11:40:16;97400.94;;;7.29;nan
19108;BME280;9686;48.832;9.126;2022-12-08T11:45:31;97393.13;;;7.32;nan
19108;BME280;9686;48.832;9.126;2022-12-08T11:48:11;97398.25;;;7.42;nan
19108;BME280;9686;48.832;9.126;2022-12-08T11:50:42;97395.63;;;7.44;nan
19108;BME280;9686;48.832;9.126;2022-12-08T11:53:17;97394.78;;;7.43;nan
19108;BME280;9686;48.832;9.126;2022-12-08T11:55:53;97394.72;;;7.48;nan
19108;BME280;9686;48.832;9.126;2022-12-08T11:58:31;97391.25;;;7.55;nan
19108;BME280;9686;48.832;9.126;2022-12-08T12:01:00;97392.09;;;7.54;nan
19108;BME280;9686;48.832;9.126;2022-12-08T12:03:35;97390.34;;;7.61;nan
19108;BME280;9686;48.832;9.126;2022-12-08T12:09:19;97394.50;;;7.77;nan
19108;BME280;9686;48.832;9.126;2022-12-08T12:20:20;97386.00;;;7.61;nan
19108;BME280;9686;48.832;9.126;2022-12-08T12:22:54;97376.47;;;7.63;nan
19108;BME280;9686;48.832;9.126;2022-12-08T12:25:23;97377.25;;;7.73;nan
19108;BME280;9686;48.832;9.126;2022-12-08T12:27:51;97375.47;;;7.80;nan
19108;BME280;9686;48.832;9.126;2022-12-08T12:30:26;97372.03;;;7.78;nan
19108;BME280;9686;48.832;9.126;2022-12-08T12:32:58;97371.28;;;7.65;nan
19108;BME280;9686;48.832;9.126;2022-12-08T12:35:39;97369.59;;;7.59;nan
19108;BME280;9686;48.832;9.126;2022-12-08T12:38:25;97372.22;;;7.58;nan
19108;BME280;9686;48.832;9.126;2022-12-08T12:41:13;97363.50;;;7.63;nan
19108;BME280;9686;48.832;9.126;2022-12-08T12:54:42;97354.94;;;7.51;nan
19108;BME280;9686;48.832;9.126;2022-12-08T12:59:42;97343.63;;;7.64;nan
19108;BME280;9686;48.832;9.126;2022-12-08T13:02:26;97340.31;;;7.47;nan
19108;BME280;9686;48.832;9.126;2022-12-08T13:05:02;97339.44;;;7.48;nan
19108;BME280;9686;48.832;9.126;2022-12-08T13:07:33;97347.19;;;7.49;nan
19108;BME280;9686;48.832;9.126;2022-12-08T13:10:12;97339.47;;;7.41;nan
19108;BME280;9686;48.832;9.126;2022-12-08T13:12:42;97339.22;;;7.72;nan
19108;BME280;9686;48.832;9.126;2022-12-08T13:15:15;97343.53;;;7.73;nan
19108;BME280;9686;48.832;9.126;2022-12-08T13:17:44;97337.53;;;7.68;nan
19108;BME280;9686;48.832;9.126;2022-12-08T13:20:20;97341.97;;;7.55;nan
19108;BME280;9686;48.832;9.126;2022-12-08T13:28:21;97338.53;;;7.55;nan
19108;BME280;9686;48.832;9.126;2022-12-08T13:30:49;97345.44;;;7.51;nan
19108;BME280;9686;48.832;9.126;2022-12-08T13:33:22;97341.19;;;7.44;nan
19108;BME280;9686;48.832;9.126;2022-12-08T13:38:43;97341.16;;;7.49;nan
19108;BME280;9686;48.832;9.126;2022-12-08T13:41:17;97334.28;;;7.45;nan
19108;BME280;9686;48.832;9.126;2022-12-08T13:43:49;97335.00;;;7.62;nan
19108;BME280;9686;48.832;9.126;2022-12-08T13:46:41;97331.75;;;7.37;nan
19108;BME280;9686;48.832;9.126;2022-12-08T13:49:08;97334.38;;;7.28;nan
19108;BME280;9686;48.832;9.126;2022-12-08T13:51:45;97330.94;;;7.32;nan
19108;BME280;9686;48.832;9.126;2022-12-08T13:54:32;97328.25;;;7.42;nan
19108;BME280;9686;48.832;9.126;2022-12-08T13:56:59;97328.19;;;7.49;nan
19108;BME280;9686;48.832;9.126;2022-12-08T13:59:29;97328.34;;;7.30;nan
19108;BME280;9686;48.832;9.126;2022-12-08T14:02:02;97330.97;;;7.24;nan
19108;BME280;9686;48.832;9.126;2022-12-08T14:04:28;97325.81;;;7.18;nan
19108;BME280;9686;48.832;9.126;2022-12-08T14:07:00;97325.75;;;7.30;nan
19108;BME280;9686;48.832;9.126;2022-12-08T14:09:32;97318.84;;;7.28;nan
19108;BME280;9686;48.832;9.126;2022-12-08T14:12:05;97322.34;;;7.22;nan
19108;BME280;9686;48.832;9.126;2022-12-08T14:14:44;97320.56;;;7.30;nan
19108;BME280;9686;48.832;9.126;2022-12-08T14:17:12;97326.53;;;7.38;nan
19108;BME280;9686;48.832;9.126;2022-12-08T14:19:40;97321.44;;;7.26;nan
19108;BME280;9686;48.832;9.126;2022-12-08T14:22:16;97324.88;;;7.31;nan
19108;BME280;9686;48.832;9.126;2022-12-08T14:24:49;97332.66;;;7.27;nan
19108;BME280;9686;48.832;9.126;2022-12-08T14:27:17;97325.66;;;7.41;nan
19108;BME280;9686;48.832;9.126;2022-12-08T14:29:58;97325.75;;;7.26;nan
19108;BME280;9686;48.832;9.126;2022-12-08T14:32:31;97333.59;;;7.17;nan
19108;BME280;9686;48.832;9.126;2022-12-08T14:37:29;97329.22;;;7.25;nan
19108;BME280;9686;48.832;9.126;2022-12-08T14:40:04;97329.94;;;7.43;nan
19108;BME280;9686;48.832;9.126;2022-12-08T14:42:30;97334.44;;;7.20;nan
19108;BME280;9686;48.832;9.126;2022-12-08T14:45:09;97330.09;;;7.25;nan
19108;BME280;9686;48.832;9.126;2022-12-08T14:47:35;97333.50;;;7.35;nan
19108;BME280;9686;48.832;9.126;2022-12-08T14:50:02;97330.16;;;7.18;nan
19108;BME280;9686;48.832;9.126;2022-12-08T14:52:29;97329.34;;;7.11;nan
19108;BME280;9686;48.832;9.126;2022-12-08T14:54:56;97323.25;;;7.15;nan
19108;BME280;9686;48.832;9.126;2022-12-08T14:57:22;97324.09;;;7.17;nan
19108;BME280;9686;48.832;9.126;2022-12-08T14:59:51;97331.06;;;7.10;nan
19108;BME280;9686;48.832;9.126;2022-12-08T15:04:57;97334.50;;;7.14;nan
19108;BME280;9686;48.832;9.126;2022-12-08T15:07:36;97325.78;;;7.23;nan
19108;BME280;9686;48.832;9.126;2022-12-08T15:12:41;97323.25;;;7.17;nan